Time;durP1;ratioP1;P1;durP2;ratioP2;P2;SDS_P1;SDS_P2;PMS_P1;PMS_P2;Temp;Humidity;BMP_temperature;BMP_pressure;BME280_temperature;BME280_humidity;BME280_pressure;Samples;Min_cycle;Max_cycle;Signal;HPM_P1;HPM_P2
2023/07/06 00:01:06;;;;;;;1.85;0.77;;;14.10;99.90;;;;;;4858370;29;20049;-62
2023/07/06 00:03:34;;;;;;;2.83;0.63;;;14.10;99.90;;;;;;4855441;29;20049;-63
2023/07/06 00:06:07;;;;;;;4.38;1.25;;;13.90;99.90;;;;;;4849416;29;20398;-62
2023/07/06 00:08:37;;;;;;;5.45;0.85;;;13.90;99.90;;;;;;4858036;29;20057;-61
2023/07/06 00:11:05;;;;;;;3.78;0.95;;;13.80;99.90;;;;;;4858389;29;20068;-61
2023/07/06 00:13:34;;;;;;;2.20;0.75;;;13.80;99.90;;;;;;4853809;29;20409;-62
2023/07/06 00:16:02;;;;;;;4.38;0.77;;;13.70;99.90;;;;;;4854400;29;20061;-62
2023/07/06 00:18:31;;;;;;;4.18;1.00;;;13.60;99.90;;;;;;4839946;29;20064;-61
2023/07/06 00:21:00;;;;;;;3.97;1.02;;;13.60;99.90;;;;;;4859787;29;20045;-62
2023/07/06 00:23:28;;;;;;;3.83;0.88;;;13.50;99.90;;;;;;4855817;29;20045;-61
2023/07/06 00:25:56;;;;;;;5.78;1.00;;;13.40;99.90;;;;;;4855017;29;20521;-62
2023/07/06 00:28:26;;;;;;;3.83;0.90;;;13.40;99.90;;;;;;4850385;29;20050;-62
2023/07/06 00:30:57;;;;;;;2.97;1.00;;;13.30;99.90;;;;;;4854914;29;20049;-61
2023/07/06 00:33:26;;;;;;;5.50;1.10;;;13.30;99.90;;;;;;4854885;29;20045;-62
2023/07/06 00:35:54;;;;;;;4.03;0.85;;;13.30;99.90;;;;;;4853943;29;20053;-62
2023/07/06 00:38:24;;;;;;;14.15;1.45;;;13.20;99.90;;;;;;4852626;29;20057;-62
2023/07/06 00:41:00;;;;;;;3.60;0.73;;;13.20;99.90;;;;;;4852626;29;20056;-62
2023/07/06 00:43:47;;;;;;;6.50;1.05;;;13.20;99.90;;;;;;4857001;29;20041;-62
2023/07/06 00:46:14;;;;;;;2.60;0.68;;;13.20;99.90;;;;;;4835673;29;20563;-61
2023/07/06 00:48:45;;;;;;;3.78;0.65;;;13.10;99.90;;;;;;4839505;29;20415;-61
2023/07/06 00:51:22;;;;;;;5.90;1.10;;;13.20;99.90;;;;;;4867416;29;20048;-63
2023/07/06 00:53:54;;;;;;;7.53;2.08;;;13.10;99.90;;;;;;4867610;29;20060;-61
2023/07/06 00:56:27;;;;;;;6.70;1.13;;;13.10;99.90;;;;;;4853130;29;20618;-60
2023/07/06 00:59:05;;;;;;;6.70;2.08;;;13.10;99.90;;;;;;4850202;29;20052;-65
2023/07/06 01:01:36;;;;;;;7.97;1.15;;;13.00;99.90;;;;;;4851971;29;20046;-61
2023/07/06 01:04:08;;;;;;;3.72;0.98;;;13.00;99.90;;;;;;4853371;29;20384;-66
2023/07/06 01:06:41;;;;;;;4.72;1.02;;;12.90;99.90;;;;;;4854007;29;20050;-65
2023/07/06 01:09:10;;;;;;;3.90;0.90;;;12.90;99.90;;;;;;4857508;29;20068;-60
2023/07/06 01:11:41;;;;;;;4.57;1.20;;;12.40;99.90;;;;;;4839037;29;20088;-67
2023/07/06 01:14:12;;;;;;;8.82;1.52;;;12.80;99.90;;;;;;4850812;29;20064;-67
2023/07/06 01:17:00;;;;;;;4.82;1.17;;;12.80;99.90;;;;;;4852647;29;20049;-60
2023/07/06 01:19:40;;;;;;;3.65;1.13;;;12.80;99.90;;;;;;4851938;29;20053;-62
2023/07/06 01:22:35;;;;;;;12.00;1.25;;;12.80;99.90;;;;;;4852420;29;20303;-63
2023/07/06 01:25:21;;;;;;;7.05;1.33;;;12.90;99.90;;;;;;4863296;29;20054;-62
2023/07/06 01:28:22;;;;;;;4.53;1.77;;;12.90;99.90;;;;;;4838374;29;20053;-62
2023/07/06 01:31:17;;;;;;;4.28;1.33;;;12.90;99.90;;;;;;4857160;29;20052;-65
2023/07/06 01:34:01;;;;;;;8.93;1.80;;;13.00;99.90;;;;;;4841474;29;20086;-61
2023/07/06 01:36:39;;;;;;;5.88;1.70;;;13.00;99.90;;;;;;4841575;29;20057;-60
2023/07/06 01:39:28;;;;;;;5.35;1.63;;;13.10;99.90;;;;;;4860224;29;20045;-62
2023/07/06 01:42:14;;;;;;;7.80;2.15;;;13.10;99.90;;;;;;4859920;29;20064;-61
2023/07/06 01:44:46;;;;;;;8.93;1.90;;;13.10;99.90;;;;;;4848174;29;20061;-63
2023/07/06 01:47:18;;;;;;;4.20;1.70;;;13.10;99.90;;;;;;4856237;29;20056;-61
2023/07/06 01:49:48;;;;;;;6.38;2.90;;;13.10;99.90;;;;;;4865391;29;20050;-64
2023/07/06 01:52:37;;;;;;;9.65;1.92;;;13.10;99.90;;;;;;4840321;29;20065;-61
2023/07/06 01:55:14;;;;;;;5.82;1.80;;;13.10;99.90;;;;;;4841133;29;20413;-60
2023/07/06 01:57:53;;;;;;;3.42;1.40;;;13.10;99.90;;;;;;4856066;29;20541;-62
2023/07/06 02:00:30;;;;;;;5.07;1.63;;;13.10;99.90;;;;;;4875097;29;20064;-70
2023/07/06 02:03:05;;;;;;;4.45;2.03;;;13.10;99.90;;;;;;4859168;29;20409;-68
2023/07/06 02:05:36;;;;;;;7.53;1.65;;;13.10;99.90;;;;;;4859413;29;20054;-63
2023/07/06 02:08:07;;;;;;;3.47;1.13;;;13.10;99.90;;;;;;4856293;29;20421;-67
2023/07/06 02:10:35;;;;;;;5.07;1.50;;;13.10;99.90;;;;;;4855958;29;20050;-62
2023/07/06 02:13:03;;;;;;;5.18;1.58;;;13.10;99.90;;;;;;4857054;29;20383;-67
2023/07/06 02:15:31;;;;;;;6.05;1.75;;;13.10;99.90;;;;;;4859139;29;20061;-69
2023/07/06 02:18:01;;;;;;;4.00;1.10;;;13.10;99.90;;;;;;4857769;29;20053;-63
2023/07/06 02:20:29;;;;;;;5.88;1.80;;;13.00;99.90;;;;;;4854053;29;20045;-68
2023/07/06 02:23:04;;;;;;;4.93;1.45;;;13.10;99.90;;;;;;4840367;29;20053;-68
2023/07/06 02:25:32;;;;;;;3.53;1.50;;;13.00;99.90;;;;;;4861330;29;20052;-68
2023/07/06 02:28:00;;;;;;;8.57;1.60;;;13.00;99.90;;;;;;4859291;29;20426;-68
2023/07/06 02:30:28;;;;;;;8.90;1.58;;;13.00;99.90;;;;;;4858142;29;20060;-67
2023/07/06 02:32:56;;;;;;;4.82;1.45;;;13.10;99.90;;;;;;4858288;29;20409;-65
2023/07/06 02:35:24;;;;;;;5.78;1.25;;;13.00;99.90;;;;;;4858134;29;20052;-60
2023/07/06 02:37:52;;;;;;;6.13;1.40;;;13.10;99.90;;;;;;4857634;29;20053;-65
2023/07/06 02:40:20;;;;;;;3.70;1.40;;;13.10;99.90;;;;;;4857763;29;20049;-60
2023/07/06 02:42:48;;;;;;;3.17;1.00;;;13.10;99.90;;;;;;4860933;29;20092;-59
2023/07/06 02:45:17;;;;;;;3.58;1.33;;;13.00;99.90;;;;;;4876439;29;20053;-59
2023/07/06 02:47:45;;;;;;;4.93;1.42;;;13.00;99.90;;;;;;4857983;29;20057;-59
2023/07/06 02:50:14;;;;;;;5.55;1.23;;;13.00;99.90;;;;;;4871333;29;20057;-61
2023/07/06 02:52:42;;;;;;;5.10;1.63;;;13.00;99.90;;;;;;4859611;29;20041;-61
2023/07/06 02:55:10;;;;;;;6.30;1.60;;;13.00;99.90;;;;;;4859358;29;20065;-65
2023/07/06 02:57:39;;;;;;;6.70;1.90;;;13.00;99.90;;;;;;4861418;29;20045;-61
2023/07/06 03:00:12;;;;;;;4.05;1.70;;;13.00;99.90;;;;;;4877623;29;20053;-65
2023/07/06 03:02:40;;;;;;;8.50;1.77;;;12.90;99.90;;;;;;4862332;29;20049;-64
2023/07/06 03:05:09;;;;;;;5.80;1.85;;;12.90;99.90;;;;;;4875771;29;20060;-60
2023/07/06 03:07:37;;;;;;;6.10;1.40;;;12.90;99.90;;;;;;4864640;29;20037;-61
2023/07/06 03:10:08;;;;;;;4.38;1.40;;;12.90;99.90;;;;;;4861581;29;20607;-64
2023/07/06 03:12:39;;;;;;;11.30;1.77;;;12.90;99.90;;;;;;4869782;29;20068;-61
2023/07/06 03:15:10;;;;;;;5.47;1.08;;;13.00;99.90;;;;;;4879862;29;20053;-61
2023/07/06 03:17:39;;;;;;;4.60;1.92;;;12.90;99.90;;;;;;4879598;29;20045;-61
2023/07/06 03:20:14;;;;;;;5.55;2.03;;;13.00;99.90;;;;;;4879765;29;20056;-60
2023/07/06 03:22:45;;;;;;;6.05;1.50;;;13.00;99.90;;;;;;4862732;29;20054;-62
2023/07/06 03:25:34;;;;;;;2.72;1.42;;;12.90;99.90;;;;;;4861894;29;20053;-59
2023/07/06 03:28:02;;;;;;;6.18;1.65;;;12.90;99.90;;;;;;4861169;29;20046;-60
2023/07/06 03:30:30;;;;;;;5.22;1.73;;;12.90;99.90;;;;;;4845440;29;20053;-60
2023/07/06 03:33:01;;;;;;;8.85;1.70;;;12.90;99.90;;;;;;4859779;29;20050;-60
2023/07/06 03:35:28;;;;;;;2.35;1.63;;;12.90;99.90;;;;;;4861007;29;20053;-61
2023/07/06 03:37:58;;;;;;;7.28;1.58;;;12.80;99.90;;;;;;4863500;29;20046;-63
2023/07/06 03:40:29;;;;;;;11.02;2.38;;;12.80;99.90;;;;;;4880531;29;20057;-59
2023/07/06 03:42:57;;;;;;;3.58;1.67;;;12.80;99.90;;;;;;4864674;29;20056;-60
2023/07/06 03:45:25;;;;;;;8.52;1.33;;;12.80;99.90;;;;;;4860160;29;20046;-62
2023/07/06 03:47:53;;;;;;;7.63;1.80;;;12.80;99.90;;;;;;4844283;29;20053;-60
2023/07/06 03:50:21;;;;;;;2.88;1.33;;;12.80;99.90;;;;;;4861896;29;20049;-59
2023/07/06 03:52:48;;;;;;;7.88;1.70;;;12.90;99.90;;;;;;4862320;29;20405;-60
2023/07/06 03:55:24;;;;;;;10.68;2.15;;;12.90;99.90;;;;;;4879940;29;20045;-60
2023/07/06 03:57:52;;;;;;;9.38;1.83;;;12.90;99.90;;;;;;4868954;29;20061;-62
2023/07/06 04:00:34;;;;;;;7.03;1.70;;;12.90;99.90;;;;;;4860890;29;20050;-59
2023/07/06 04:03:03;;;;;;;9.20;1.60;;;12.90;99.90;;;;;;4859337;29;20497;-60
2023/07/06 04:05:38;;;;;;;3.40;1.52;;;12.90;99.90;;;;;;4861422;29;20054;-60
2023/07/06 04:08:09;;;;;;;7.22;1.80;;;12.90;99.90;;;;;;4859633;29;20057;-60
2023/07/06 04:10:39;;;;;;;7.43;1.67;;;13.00;99.90;;;;;;4857539;29;20052;-60
2023/07/06 04:13:08;;;;;;;9.00;2.00;;;13.00;99.90;;;;;;4875461;29;20081;-60
2023/07/06 04:15:39;;;;;;;6.68;2.03;;;13.00;99.90;;;;;;4861779;29;20049;-59
2023/07/06 04:18:07;;;;;;;9.07;2.10;;;13.00;99.90;;;;;;4879951;29;20048;-60
2023/07/06 04:20:34;;;;;;;8.85;1.70;;;13.00;99.90;;;;;;4860441;29;20049;-60
2023/07/06 04:23:03;;;;;;;6.63;1.80;;;13.00;99.90;;;;;;4860319;29;20049;-59
2023/07/06 04:25:33;;;;;;;7.13;1.85;;;13.00;99.90;;;;;;4861053;29;20061;-59
2023/07/06 04:28:08;;;;;;;8.90;1.92;;;13.00;99.90;;;;;;4861260;29;20049;-65
2023/07/06 04:30:42;;;;;;;6.50;1.70;;;13.10;99.90;;;;;;4860118;29;20054;-67
2023/07/06 04:33:15;;;;;;;5.45;1.95;;;13.10;99.90;;;;;;4860838;29;20059;-65
2023/07/06 04:35:43;;;;;;;6.85;1.98;;;13.00;99.90;;;;;;4861012;29;20053;-68
2023/07/06 04:38:11;;;;;;;6.57;1.83;;;13.10;99.90;;;;;;4861017;29;20064;-67
2023/07/06 04:40:41;;;;;;;6.32;1.92;;;13.10;99.90;;;;;;4860945;29;20064;-68
2023/07/06 04:43:11;;;;;;;4.68;1.67;;;13.10;99.90;;;;;;4860735;29;20049;-68
2023/07/06 04:45:38;;;;;;;6.97;2.80;;;13.10;99.90;;;;;;4860820;29;20061;-69
2023/07/06 04:48:07;;;;;;;9.35;2.10;;;13.00;99.90;;;;;;4851474;29;20061;-61
2023/07/06 04:50:37;;;;;;;8.68;2.33;;;13.00;99.90;;;;;;4856611;29;20520;-63
2023/07/06 04:53:07;;;;;;;;;;;13.00;99.90;;;;;;4856685;29;20053;-61
2023/07/06 04:55:35;;;;;;;;;;;12.90;99.90;;;;;;4857588;29;20129;-70
2023/07/06 04:58:05;;;;;;;9.18;2.97;;;12.90;99.90;;;;;;4862156;29;19930;-66
2023/07/06 05:00:37;;;;;;;8.75;2.63;;;12.90;99.90;;;;;;4874576;29;20049;-67
2023/07/06 05:03:07;;;;;;;6.93;1.95;;;12.80;99.90;;;;;;4852160;29;20066;-64
2023/07/06 05:05:42;;;;;;;10.05;1.85;;;12.80;99.90;;;;;;4854097;29;20061;-60
2023/07/06 05:08:16;;;;;;;11.85;2.75;;;12.70;99.90;;;;;;4854664;29;20054;-61
2023/07/06 05:10:47;;;;;;;5.28;1.75;;;12.60;99.90;;;;;;4873027;29;20056;-61
2023/07/06 05:13:15;;;;;;;6.97;2.20;;;12.60;99.90;;;;;;4853472;29;20041;-61
2023/07/06 05:15:44;;;;;;;6.35;2.22;;;12.60;99.90;;;;;;4849463;29;20046;-62
2023/07/06 05:18:12;;;;;;;10.40;2.35;;;12.60;99.90;;;;;;4852214;29;20065;-60
2023/07/06 05:20:40;;;;;;;6.88;2.20;;;12.50;99.90;;;;;;4835664;29;20530;-60
2023/07/06 05:23:09;;;;;;;9.35;2.47;;;12.50;99.90;;;;;;4847254;29;20305;-60
2023/07/06 05:25:37;;;;;;;11.85;2.20;;;12.50;99.90;;;;;;4861468;29;20050;-61
2023/07/06 05:28:05;;;;;;;9.95;2.42;;;12.60;99.90;;;;;;4857898;29;20510;-62
2023/07/06 05:30:32;;;;;;;7.38;2.38;;;12.50;99.90;;;;;;4870544;29;20499;-64
2023/07/06 05:33:00;;;;;;;6.80;3.25;;;12.60;99.90;;;;;;4848897;29;20503;-62
2023/07/06 05:35:28;;;;;;;8.63;2.85;;;12.60;99.90;;;;;;4854076;29;20406;-61
2023/07/06 05:37:56;;;;;;;7.80;2.60;;;12.50;99.90;;;;;;4852069;29;20046;-60
2023/07/06 05:40:24;;;;;;;7.45;2.67;;;12.50;99.90;;;;;;4853072;29;20056;-62
2023/07/06 05:42:54;;;;;;;7.70;2.80;;;12.50;99.90;;;;;;4854177;29;20072;-64
2023/07/06 05:45:22;;;;;;;10.30;2.38;;;12.50;99.90;;;;;;4838203;29;20062;-61
2023/07/06 05:47:50;;;;;;;9.38;2.78;;;12.50;99.90;;;;;;4842180;29;20053;-63
2023/07/06 05:50:18;;;;;;;8.95;2.22;;;12.40;99.90;;;;;;4867255;29;20056;-61
2023/07/06 05:52:46;;;;;;;5.97;2.92;;;12.40;99.90;;;;;;4864622;29;20057;-60
2023/07/06 05:55:15;;;;;;;9.68;3.47;;;12.40;99.90;;;;;;4856031;29;20045;-62
2023/07/06 05:57:43;;;;;;;11.00;2.85;;;12.40;99.90;;;;;;4864705;29;20054;-62
2023/07/06 06:00:13;;;;;;;6.05;2.72;;;12.40;99.90;;;;;;4849618;29;20037;-63
2023/07/06 06:02:44;;;;;;;6.05;2.78;;;12.40;99.90;;;;;;4836171;29;20413;-62
2023/07/06 06:05:15;;;;;;;7.18;2.63;;;12.50;99.90;;;;;;4844457;29;20054;-64
2023/07/06 06:07:46;;;;;;;13.23;2.65;;;12.60;99.90;;;;;;4856260;29;20415;-62
2023/07/06 06:10:14;;;;;;;11.75;3.17;;;12.60;99.90;;;;;;4848380;29;20053;-60
2023/07/06 06:12:44;;;;;;;7.05;2.17;;;12.60;99.90;;;;;;4859519;29;20061;-61
2023/07/06 06:15:14;;;;;;;6.40;2.42;;;12.70;99.90;;;;;;4849765;29;20049;-60
2023/07/06 06:17:44;;;;;;;6.40;1.90;;;12.70;99.90;;;;;;4853669;29;20498;-61
2023/07/06 06:20:12;;;;;;;8.95;3.53;;;12.80;99.90;;;;;;4864914;29;20089;-59
2023/07/06 06:22:40;;;;;;;14.60;3.17;;;12.80;99.90;;;;;;4854084;29;20681;-62
2023/07/06 06:25:08;;;;;;;18.45;2.35;;;12.90;99.90;;;;;;4863153;29;20049;-61
2023/07/06 06:27:36;;;;;;;11.50;1.92;;;13.00;99.90;;;;;;4852003;29;20410;-62
2023/07/06 06:30:05;;;;;;;10.00;2.63;;;13.10;99.90;;;;;;4857291;29;20048;-59
2023/07/06 06:32:34;;;;;;;4.18;1.90;;;13.20;99.90;;;;;;4865231;29;20045;-59
2023/07/06 06:35:18;;;;;;;6.43;1.80;;;13.30;99.90;;;;;;4851153;29;20049;-59
2023/07/06 06:37:46;;;;;;;10.27;2.15;;;13.40;99.90;;;;;;4851327;29;20065;-62
2023/07/06 06:40:14;;;;;;;8.60;2.05;;;13.50;99.90;;;;;;4851241;29;20053;-60
2023/07/06 06:42:42;;;;;;;11.57;2.65;;;13.50;99.90;;;;;;4851134;29;20050;-60
2023/07/06 06:45:10;;;;;;;11.20;2.50;;;13.60;99.90;;;;;;4842789;29;20055;-60
2023/07/06 06:47:38;;;;;;;7.30;2.40;;;13.60;99.90;;;;;;4859560;29;20054;-61
2023/07/06 06:50:09;;;;;;;9.15;2.55;;;13.60;99.90;;;;;;4859424;29;20057;-60
2023/07/06 06:52:36;;;;;;;;;;;13.70;99.90;;;;;;4855683;29;20062;-59
2023/07/06 06:55:05;;;;;;;8.77;1.98;;;13.70;99.90;;;;;;4857611;29;19924;-61
2023/07/06 07:00:26;;;;;;;12.65;1.83;;;13.80;99.90;;;;;;4855239;29;20061;-59
2023/07/06 07:02:54;;;;;;;7.78;1.75;;;13.90;99.90;;;;;;4863629;29;20057;-59
2023/07/06 07:05:22;;;;;;;7.30;1.92;;;13.90;99.90;;;;;;4856163;29;20053;-59
2023/07/06 07:07:50;;;;;;;5.90;2.20;;;14.00;99.90;;;;;;4848878;29;20053;-60
2023/07/06 07:10:19;;;;;;;21.23;2.60;;;14.10;99.90;;;;;;4855924;29;20052;-60
2023/07/06 07:12:47;;;;;;;10.35;2.22;;;14.20;99.90;;;;;;4856276;29;20056;-64
2023/07/06 07:15:15;;;;;;;5.38;1.92;;;14.30;99.90;;;;;;4837630;29;20050;-59
2023/07/06 07:17:44;;;;;;;7.18;1.88;;;14.40;99.90;;;;;;4843260;29;20398;-61
2023/07/06 07:20:14;;;;;;;7.93;2.05;;;14.80;99.90;;;;;;4856014;29;20062;-59
2023/07/06 07:22:41;;;;;;;7.80;2.42;;;14.70;99.90;;;;;;4852269;29;20053;-60
2023/07/06 07:25:09;;;;;;;7.15;2.03;;;14.80;99.90;;;;;;4872951;29;20064;-60
2023/07/06 07:27:37;;;;;;;5.05;1.80;;;14.90;99.90;;;;;;4859339;29;20054;-59
2023/07/06 07:30:06;;;;;;;10.98;1.92;;;15.00;99.90;;;;;;4867608;29;20045;-58
2023/07/06 07:32:34;;;;;;;9.40;2.10;;;15.20;99.90;;;;;;4844545;29;20069;-60
2023/07/06 07:35:03;;;;;;;5.93;1.90;;;15.30;99.90;;;;;;4855638;29;20664;-59
2023/07/06 07:37:30;;;;;;;7.95;1.63;;;15.40;99.90;;;;;;4853154;29;20060;-59
2023/07/06 07:40:00;;;;;;;8.30;1.88;;;15.50;99.90;;;;;;4856042;29;20060;-60
2023/07/06 07:42:30;;;;;;;4.22;1.83;;;15.50;99.90;;;;;;4859088;29;20052;-59
2023/07/06 07:44:58;;;;;;;4.95;2.00;;;15.50;99.90;;;;;;4855264;29;20050;-59
2023/07/06 07:47:27;;;;;;;5.68;2.50;;;15.50;99.90;;;;;;4844192;29;20609;-59
2023/07/06 07:49:55;;;;;;;6.25;1.92;;;15.50;99.90;;;;;;4855653;29;20057;-58
2023/07/06 07:52:22;;;;;;;21.55;3.47;;;15.50;99.90;;;;;;4852152;29;20049;-58
2023/07/06 07:54:52;;;;;;;11.55;1.83;;;15.60;99.90;;;;;;4850874;29;20116;-59
2023/07/06 07:57:20;;;;;;;6.78;1.50;;;15.60;99.90;;;;;;4855257;29;20056;-58
2023/07/06 07:59:50;;;;;;;5.47;1.58;;;15.70;99.90;;;;;;4862467;29;20049;-58
2023/07/06 08:02:19;;;;;;;9.98;2.38;;;15.80;99.90;;;;;;4854755;29;20061;-58
2023/07/06 08:04:48;;;;;;;7.82;2.10;;;15.90;99.90;;;;;;4854987;29;20450;-58
2023/07/06 08:07:16;;;;;;;8.17;2.13;;;15.90;99.90;;;;;;4852396;29;20415;-59
2023/07/06 08:09:43;;;;;;;10.02;1.80;;;16.00;99.90;;;;;;4845351;29;20301;-61
2023/07/06 08:12:11;;;;;;;7.15;1.73;;;16.00;99.90;;;;;;4841776;29;20053;-59
2023/07/06 08:14:43;;;;;;;4.25;1.50;;;16.10;99.90;;;;;;4867630;29;20045;-59
2023/07/06 08:17:12;;;;;;;3.92;1.13;;;16.20;99.90;;;;;;4853121;29;20065;-59
2023/07/06 08:19:40;;;;;;;2.45;0.98;;;16.30;99.90;;;;;;4858019;29;20049;-59
2023/07/06 08:22:29;;;;;;;4.00;1.27;;;16.50;99.90;;;;;;4855347;29;20045;-59
2023/07/06 08:24:58;;;;;;;4.90;1.30;;;16.80;99.90;;;;;;4838917;29;20046;-59
2023/07/06 08:27:26;;;;;;;3.35;1.10;;;16.70;99.90;;;;;;4845821;29;20050;-58
2023/07/06 08:29:54;;;;;;;5.10;1.20;;;16.90;99.90;;;;;;4839758;29;20046;-58
2023/07/06 08:32:22;;;;;;;3.15;0.90;;;17.10;99.90;;;;;;4841752;29;20052;-58
2023/07/06 08:34:50;;;;;;;4.95;1.08;;;17.20;99.90;;;;;;4848591;29;20050;-59
2023/07/06 08:37:18;;;;;;;13.38;2.25;;;17.30;99.90;;;;;;4848185;29;20060;-58
2023/07/06 08:39:47;;;;;;;3.90;1.00;;;17.20;99.90;;;;;;4853071;29;20410;-58
2023/07/06 08:42:18;;;;;;;2.03;1.00;;;17.20;99.90;;;;;;4857002;29;20057;-61
2023/07/06 08:44:56;;;;;;;5.68;1.00;;;17.20;99.90;;;;;;4857893;29;20050;-58
2023/07/06 08:47:25;;;;;;;2.85;1.00;;;17.10;99.90;;;;;;4868180;29;20058;-61
2023/07/06 08:49:55;;;;;;;;;;;17.20;99.90;;;;;;4856679;29;20206;-58
2023/07/06 08:52:24;;;;;;;4.55;0.95;;;17.20;99.90;;;;;;4865736;29;19939;-60
2023/07/06 08:54:53;;;;;;;3.30;1.20;;;17.10;99.90;;;;;;4846882;29;20053;-58
2023/07/06 08:57:24;;;;;;;8.32;1.35;;;17.20;99.90;;;;;;4846613;29;20052;-62
2023/07/06 08:59:53;;;;;;;3.55;1.08;;;17.20;99.90;;;;;;4857350;29;20054;-58
2023/07/06 09:02:26;;;;;;;3.58;1.27;;;17.30;99.90;;;;;;4860411;29;20053;-58
2023/07/06 09:04:56;;;;;;;5.53;1.33;;;17.40;99.90;;;;;;4857352;29;20057;-61
2023/07/06 09:07:38;;;;;;;4.32;1.15;;;17.60;99.90;;;;;;4852502;29;20057;-60
2023/07/06 09:10:15;;;;;;;4.90;1.48;;;17.70;99.90;;;;;;4839446;29;20395;-59
2023/07/06 09:12:54;;;;;;;4.22;0.88;;;18.00;99.90;;;;;;4854104;29;20054;-58
2023/07/06 09:15:28;;;;;;;4.43;0.98;;;18.20;99.90;;;;;;4864914;29;20826;-60
2023/07/06 09:17:59;;;;;;;2.42;0.80;;;18.30;99.90;;;;;;4856873;29;20064;-59
2023/07/06 09:20:28;;;;;;;5.18;1.15;;;18.40;99.90;;;;;;4853917;29;20491;-62
2023/07/06 09:22:56;;;;;;;4.43;1.00;;;18.50;99.90;;;;;;4840997;29;20099;-59
2023/07/06 09:25:35;;;;;;;4.85;1.60;;;18.50;99.90;;;;;;4842817;29;20048;-58
2023/07/06 09:28:07;;;;;;;2.90;1.20;;;18.40;99.90;;;;;;4855314;29;20061;-58
2023/07/06 09:30:39;;;;;;;4.63;1.17;;;18.40;99.90;;;;;;4844210;29;20520;-62
2023/07/06 09:33:24;;;;;;;7.35;1.00;;;18.20;99.90;;;;;;4861455;29;20055;-59
2023/07/06 09:35:56;;;;;;;5.28;1.17;;;18.20;99.90;;;;;;4849269;29;20419;-58
2023/07/06 09:38:27;;;;;;;3.83;1.15;;;18.20;99.90;;;;;;4851386;29;20517;-58
2023/07/06 09:40:55;;;;;;;3.00;1.17;;;18.20;99.90;;;;;;4867188;29;20054;-59
2023/07/06 09:43:26;;;;;;;8.77;1.50;;;18.20;99.90;;;;;;4856772;29;20045;-58
2023/07/06 09:45:55;;;;;;;3.78;1.55;;;18.20;99.90;;;;;;4852315;29;20064;-58
2023/07/06 09:48:32;;;;;;;3.55;1.00;;;18.30;99.90;;;;;;4857933;29;20517;-59
2023/07/06 09:51:11;;;;;;;4.18;1.30;;;18.50;99.90;;;;;;4852399;29;20053;-58
2023/07/06 09:53:50;;;;;;;3.80;1.20;;;18.60;99.90;;;;;;4854696;29;20053;-59
2023/07/06 09:56:18;;;;;;;11.15;1.40;;;18.70;99.90;;;;;;4850926;29;20058;-58
2023/07/06 09:58:48;;;;;;;2.50;0.95;;;18.70;99.90;;;;;;4853998;29;20042;-58
2023/07/06 10:01:22;;;;;;;5.70;1.40;;;18.90;99.90;;;;;;4851221;29;20050;-59
2023/07/06 10:04:10;;;;;;;4.28;1.00;;;19.00;99.90;;;;;;4857022;29;20059;-57
2023/07/06 10:07:23;;;;;;;4.20;1.10;;;19.10;99.30;;;;;;4851351;29;20052;-59
2023/07/06 10:10:06;;;;;;;9.18;1.40;;;19.10;99.60;;;;;;4861070;29;20508;-58
2023/07/06 10:13:09;;;;;;;3.63;1.10;;;19.10;99.70;;;;;;4847026;29;20041;-58
2023/07/06 10:15:51;;;;;;;4.43;1.10;;;19.20;99.90;;;;;;4852965;29;20065;-58
2023/07/06 10:18:27;;;;;;;2.08;0.93;;;19.20;99.90;;;;;;4851505;29;20052;-58
2023/07/06 10:21:31;;;;;;;11.00;1.52;;;19.30;99.80;;;;;;4858091;29;20057;-59
2023/07/06 10:24:37;;;;;;;21.33;1.70;;;19.40;99.40;;;;;;4846416;29;20535;-58
2023/07/06 10:27:55;;;;;;;32.17;2.22;;;19.40;99.10;;;;;;4859280;29;20045;-58
2023/07/06 10:30:31;;;;;;;7.40;1.83;;;19.40;99.20;;;;;;4836245;29;20046;-60
2023/07/06 10:33:07;;;;;;;12.07;1.42;;;19.30;99.30;;;;;;4864106;29;20049;-60
2023/07/06 10:35:43;;;;;;;4.63;1.35;;;19.30;99.60;;;;;;4859388;29;20072;-58
2023/07/06 10:38:12;;;;;;;5.32;1.48;;;19.20;99.50;;;;;;4856500;29;20068;-58
2023/07/06 10:40:39;;;;;;;5.82;1.20;;;19.10;99.70;;;;;;4862265;29;20096;-59
2023/07/06 10:43:14;;;;;;;7.25;2.58;;;18.90;99.90;;;;;;4851314;29;20049;-59
2023/07/06 10:45:43;;;;;;;21.52;3.42;;;18.80;99.90;;;;;;4869747;29;20044;-57
2023/07/06 10:48:14;;;;;;;11.10;2.03;;;18.70;99.90;;;;;;4853610;29;20049;-58
2023/07/06 10:50:50;;;;;;;6.22;1.33;;;18.60;99.90;;;;;;4854733;29;20037;-59
2023/07/06 10:53:25;;;;;;;7.70;1.67;;;18.50;99.90;;;;;;4841697;29;20423;-58
2023/07/06 10:56:02;;;;;;;11.73;2.63;;;18.40;99.90;;;;;;4867765;29;20045;-58
2023/07/06 10:58:33;;;;;;;14.48;2.33;;;18.30;99.90;;;;;;4857484;29;20057;-57
2023/07/06 11:01:09;;;;;;;6.40;1.98;;;18.30;99.90;;;;;;4842664;29;20057;-58
2023/07/06 11:03:37;;;;;;;4.32;1.88;;;18.30;99.90;;;;;;4851458;29;20057;-58
2023/07/06 11:06:10;;;;;;;8.07;1.90;;;18.30;99.90;;;;;;4834308;29;20054;-58
2023/07/06 11:09:01;;;;;;;19.55;2.50;;;18.40;99.90;;;;;;4865537;29;20049;-60
2023/07/06 11:11:34;;;;;;;18.40;2.13;;;18.70;99.90;;;;;;4849462;29;20408;-61
2023/07/06 11:14:31;;;;;;;18.98;2.40;;;18.80;99.90;;;;;;4863051;29;20054;-58
2023/07/06 11:17:30;;;;;;;16.45;2.15;;;19.10;99.90;;;;;;4843197;29;20537;-59
2023/07/06 11:20:11;;;;;;;7.50;1.52;;;19.50;99.50;;;;;;4851759;29;20546;-58
2023/07/06 11:22:40;;;;;;;3.25;1.30;;;19.50;99.50;;;;;;4856337;29;20045;-60
2023/07/06 11:25:12;;;;;;;9.80;1.88;;;19.50;99.20;;;;;;4852268;29;20073;-60
2023/07/06 11:27:44;;;;;;;13.77;1.67;;;19.50;99.90;;;;;;4856463;29;20053;-59
2023/07/06 11:30:25;;;;;;;20.35;2.65;;;19.60;99.90;;;;;;4859196;29;20795;-59
2023/07/06 11:33:06;;;;;;;17.15;2.35;;;19.70;99.90;;;;;;4856330;29;20053;-59
2023/07/06 11:35:41;;;;;;;12.88;2.05;;;19.80;99.90;;;;;;4866575;29;20049;-58
2023/07/06 11:38:24;;;;;;;34.78;2.90;;;19.80;99.90;;;;;;4853888;29;20042;-59
2023/07/06 11:41:09;;;;;;;8.00;1.55;;;19.90;99.40;;;;;;4872183;29;20080;-66
2023/07/06 11:44:03;;;;;;;4.75;1.50;;;19.90;98.90;;;;;;4858442;29;20053;-66
2023/07/06 11:46:55;;;;;;;3.85;1.30;;;19.80;99.00;;;;;;4840445;29;20066;-59
2023/07/06 11:49:48;;;;;;;3.33;1.20;;;19.70;99.50;;;;;;4851436;29;20057;-58
2023/07/06 11:52:21;;;;;;;3.33;1.10;;;19.70;99.10;;;;;;4842960;29;20049;-58
2023/07/06 11:55:06;;;;;;;5.82;1.30;;;19.60;99.40;;;;;;4858817;29;20135;-58
2023/07/06 11:57:45;;;;;;;20.58;1.90;;;19.60;99.70;;;;;;4866582;29;20084;-59
2023/07/06 12:03:08;;;;;;;7.70;1.48;;;19.50;99.90;;;;;;4871127;29;20041;-58
2023/07/06 12:05:38;;;;;;;5.90;1.30;;;19.40;99.90;;;;;;4872372;29;20051;-60
2023/07/06 12:08:27;;;;;;;12.48;1.50;;;19.40;99.80;;;;;;4868572;29;20242;-59
2023/07/06 12:11:00;;;;;;;7.50;1.23;;;19.50;99.90;;;;;;4866068;29;20065;-60
2023/07/06 12:13:42;;;;;;;3.10;1.30;;;19.50;99.90;;;;;;4857040;29;20426;-60
2023/07/06 12:16:28;;;;;;;5.03;1.25;;;19.60;99.80;;;;;;4858188;29;20615;-60
2023/07/06 12:19:04;;;;;;;1.98;1.08;;;19.70;99.40;;;;;;4847751;29;20053;-67
2023/07/06 12:21:53;;;;;;;4.40;1.45;;;19.80;99.50;;;;;;4857258;29;20067;-66
2023/07/06 12:24:24;;;;;;;10.13;1.48;;;20.00;99.60;;;;;;4856487;29;20052;-68
2023/07/06 12:27:13;;;;;;;14.07;1.75;;;20.10;99.30;;;;;;4855926;29;20058;-68
2023/07/06 12:29:45;;;;;;;3.73;1.30;;;20.40;98.50;;;;;;4857711;29;20517;-68
2023/07/06 12:32:21;;;;;;;9.90;1.80;;;20.40;98.70;;;;;;4845778;29;20050;-61
2023/07/06 12:34:52;;;;;;;6.78;1.67;;;20.50;98.30;;;;;;4858275;29;20060;-60
2023/07/06 12:37:22;;;;;;;13.85;1.65;;;20.60;98.40;;;;;;4856605;29;20056;-60
2023/07/06 12:39:50;;;;;;;;;;;20.60;97.90;;;;;;4855536;29;20068;-58
2023/07/06 12:42:20;;;;;;;8.02;1.55;;;20.60;97.60;;;;;;4855446;29;19931;-58
2023/07/06 12:44:50;;;;;;;3.97;1.70;;;20.70;97.70;;;;;;4855802;29;20053;-58
2023/07/06 12:47:33;;;;;;;5.32;1.67;;;20.70;97.60;;;;;;4853098;29;20062;-59
2023/07/06 12:50:08;;;;;;;10.43;1.98;;;20.80;97.90;;;;;;4855605;29;20054;-61
2023/07/06 12:52:37;;;;;;;8.55;1.58;;;21.00;97.00;;;;;;4857049;29;20042;-58
2023/07/06 12:55:05;;;;;;;6.38;1.67;;;21.10;97.20;;;;;;4857299;29;20068;-59
2023/07/06 12:57:36;;;;;;;3.92;1.52;;;21.30;96.80;;;;;;4856930;29;20446;-57
2023/07/06 13:00:21;;;;;;;6.93;1.75;;;21.60;96.70;;;;;;4857664;29;20069;-58
2023/07/06 13:02:55;;;;;;;5.05;1.88;;;22.00;96.10;;;;;;4860937;29;20490;-58
2023/07/06 13:05:25;;;;;;;12.63;1.80;;;22.60;96.40;;;;;;4855812;29;20442;-59
2023/07/06 13:07:54;;;;;;;6.32;1.60;;;23.20;95.30;;;;;;4856889;29;20049;-62
2023/07/06 13:10:29;;;;;;;4.40;1.67;;;23.80;93.60;;;;;;4856956;29;20418;-59
2023/07/06 13:12:57;;;;;;;3.08;1.60;;;24.20;92.70;;;;;;4855459;29;20512;-65
2023/07/06 13:15:36;;;;;;;2.92;1.63;;;24.40;90.50;;;;;;4857601;29;20520;-69
2023/07/06 13:18:11;;;;;;;6.75;1.95;;;24.30;90.30;;;;;;4842225;29;20493;-69
2023/07/06 13:20:41;;;;;;;4.07;1.40;;;24.20;89.30;;;;;;4857163;29;20046;-60